Time;durP1;ratioP1;P1;durP2;ratioP2;P2;SDS_P1;SDS_P2;PMS_P1;PMS_P2;Temp;Humidity;BMP_temperature;BMP_pressure;BME280_temperature;BME280_humidity;BME280_pressure;Samples;Min_cycle;Max_cycle;Signal;HPM_P1;HPM_P2
2024/02/25 00:02:21;;;;;;;3.73;2.50;;;4.50;99.90;;;;;;5156805;27;20497;-76
2024/02/25 00:04:49;;;;;;;5.83;2.87;;;4.50;99.90;;;;;;5175441;27;20417;-76
2024/02/25 00:07:18;;;;;;;3.97;2.93;;;4.50;99.90;;;;;;5176005;27;20452;-76
2024/02/25 00:09:46;;;;;;;2.50;2.23;;;4.50;99.90;;;;;;5160756;27;20448;-76
2024/02/25 00:12:14;;;;;;;3.60;3.30;;;4.50;99.90;;;;;;5179561;27;20524;-76
2024/02/25 00:14:43;;;;;;;3.77;3.20;;;4.50;99.90;;;;;;5160629;27;20459;-76
2024/02/25 00:17:11;;;;;;;3.13;2.83;;;4.50;99.90;;;;;;5160489;27;20508;-76
2024/02/25 00:19:41;;;;;;;3.40;2.97;;;4.50;99.90;;;;;;5160604;27;20536;-76
2024/02/25 00:22:09;;;;;;;3.10;2.80;;;4.50;99.90;;;;;;5179473;27;20548;-76
2024/02/25 00:24:37;;;;;;;2.77;2.57;;;4.50;99.90;;;;;;5160527;27;20492;-76
2024/02/25 00:27:06;;;;;;;3.07;2.77;;;4.40;99.90;;;;;;5161025;27;20559;-77
2024/02/25 00:29:35;;;;;;;3.93;3.20;;;4.40;99.90;;;;;;5160959;27;20944;-76
2024/02/25 00:32:03;;;;;;;4.30;3.20;;;4.40;99.90;;;;;;5179082;27;20428;-76
2024/02/25 00:34:32;;;;;;;4.13;2.93;;;4.40;99.90;;;;;;5160303;27;20540;-76
2024/02/25 00:37:03;;;;;;;3.37;3.03;;;4.50;99.90;;;;;;5178789;27;21029;-76
2024/02/25 00:39:31;;;;;;;3.90;2.97;;;4.40;99.90;;;;;;5160142;27;20460;-76
2024/02/25 00:42:01;;;;;;;3.67;2.80;;;4.50;99.90;;;;;;5160149;27;20449;-76
2024/02/25 00:44:35;;;;;;;3.30;2.97;;;4.50;99.90;;;;;;5160015;27;20456;-76
2024/02/25 00:47:04;;;;;;;4.57;3.37;;;4.40;99.90;;;;;;5159928;27;20555;-76
2024/02/25 00:49:33;;;;;;;3.80;3.17;;;4.40;99.90;;;;;;5159860;27;20471;-76
2024/02/25 00:52:03;;;;;;;3.97;3.37;;;4.40;99.90;;;;;;5159880;27;20961;-76
2024/02/25 00:54:31;;;;;;;3.20;2.90;;;4.40;99.90;;;;;;5159835;27;20473;-76
2024/02/25 00:56:59;;;;;;;3.30;3.00;;;4.40;99.90;;;;;;5178419;27;20449;-76
2024/02/25 00:59:28;;;;;;;3.43;3.13;;;4.40;99.90;;;;;;5178504;27;20429;-76
2024/02/25 01:01:56;;;;;;;3.40;2.90;;;4.40;99.90;;;;;;5159636;27;20448;-76
2024/02/25 01:04:24;;;;;;;3.50;3.03;;;4.40;99.90;;;;;;5159696;27;20467;-76
2024/02/25 01:06:52;;;;;;;3.83;2.83;;;4.40;99.90;;;;;;5178300;27;20448;-76
2024/02/25 01:09:22;;;;;;;3.63;3.30;;;4.40;99.90;;;;;;5159651;27;20505;-76
2024/02/25 01:11:51;;;;;;;3.47;3.17;;;4.40;99.90;;;;;;5159533;27;20529;-76
2024/02/25 01:14:20;;;;;;;3.77;3.37;;;4.40;99.90;;;;;;5159391;27;20444;-76
2024/02/25 01:16:49;;;;;;;4.13;3.73;;;4.40;99.90;;;;;;5178008;27;20472;-76
2024/02/25 01:19:20;;;;;;;3.60;3.30;;;4.30;99.90;;;;;;5159092;27;20459;-76
2024/02/25 01:21:51;;;;;;;3.87;3.47;;;4.40;99.90;;;;;;5178379;27;20896;-76
2024/02/25 01:24:19;;;;;;;4.20;3.80;;;4.40;99.90;;;;;;5178032;27;20457;-76
2024/02/25 01:26:48;;;;;;;4.20;3.80;;;4.40;99.90;;;;;;5159089;27;20484;-76
2024/02/25 01:29:17;;;;;;;5.23;3.50;;;4.30;99.90;;;;;;5177858;27;20508;-76
2024/02/25 01:31:45;;;;;;;5.43;3.10;;;4.30;99.90;;;;;;5159180;27;20524;-76
2024/02/25 01:34:14;;;;;;;6.20;3.00;;;4.30;99.90;;;;;;5159049;27;20968;-76
2024/02/25 01:36:43;;;;;;;4.80;3.30;;;4.30;99.90;;;;;;5158949;27;20555;-76
2024/02/25 01:39:11;;;;;;;4.47;3.40;;;4.30;99.90;;;;;;5158953;27;20445;-76
2024/02/25 01:41:40;;;;;;;3.27;2.90;;;4.30;99.90;;;;;;5177598;27;20527;-76
2024/02/25 01:44:11;;;;;;;3.70;3.20;;;4.30;99.90;;;;;;5158785;27;20471;-76
2024/02/25 01:46:40;;;;;;;3.77;3.10;;;4.30;99.90;;;;;;5177583;27;20449;-76
2024/02/25 01:49:08;;;;;;;5.33;2.73;;;4.30;99.90;;;;;;5177458;27;20436;-76
2024/02/25 01:51:37;;;;;;;3.53;3.20;;;4.20;99.90;;;;;;5158829;27;20439;-76
2024/02/25 01:54:05;;;;;;;3.30;2.50;;;4.20;99.90;;;;;;5158838;27;20863;-76
2024/02/25 01:56:35;;;;;;;3.93;3.17;;;4.20;99.90;;;;;;5177612;27;20467;-76
2024/02/25 01:59:04;;;;;;;5.23;2.83;;;4.20;99.90;;;;;;5158676;27;20524;-76
2024/02/25 02:01:35;;;;;;;3.13;2.60;;;4.20;99.90;;;;;;5177366;27;20429;-76
2024/02/25 02:04:04;;;;;;;4.40;3.10;;;4.20;99.90;;;;;;5177184;27;20496;-76
2024/02/25 02:06:32;;;;;;;3.77;2.90;;;4.20;99.90;;;;;;5177119;27;20536;-76
2024/02/25 02:09:01;;;;;;;5.23;3.67;;;4.20;99.90;;;;;;5158397;27;20469;-76
2024/02/25 02:11:29;;;;;;;2.80;2.40;;;4.20;99.90;;;;;;5177114;27;20493;-76
2024/02/25 02:13:58;;;;;;;4.00;2.37;;;4.20;99.90;;;;;;5158394;27;20527;-76
2024/02/25 02:16:26;;;;;;;4.33;2.53;;;4.20;99.90;;;;;;5176936;27;20445;-76
2024/02/25 02:18:56;;;;;;;3.10;2.37;;;4.20;99.90;;;;;;5158320;27;20507;-76
2024/02/25 02:21:26;;;;;;;2.80;2.03;;;4.20;99.90;;;;;;5158162;27;20447;-76
2024/02/25 02:23:54;;;;;;;3.00;2.17;;;4.20;99.90;;;;;;5158073;27;20465;-76
2024/02/25 02:26:22;;;;;;;4.33;2.00;;;4.20;99.90;;;;;;5157999;27;20452;-76
2024/02/25 02:28:50;;;;;;;4.57;2.13;;;4.20;99.90;;;;;;5157950;27;20501;-76
2024/02/25 02:31:18;;;;;;;3.60;1.97;;;4.30;99.90;;;;;;5157405;27;20531;-76
2024/02/25 02:33:49;;;;;;;3.20;2.07;;;4.30;99.90;;;;;;5158019;27;20807;-76
2024/02/25 02:36:17;;;;;;;2.80;2.27;;;4.30;99.90;;;;;;5176866;27;20444;-76
2024/02/25 02:38:47;;;;;;;2.70;2.10;;;4.30;99.90;;;;;;5157775;27;20441;-76
2024/02/25 02:41:19;;;;;;;3.73;1.90;;;4.30;99.90;;;;;;5157709;27;20437;-76
2024/02/25 02:43:47;;;;;;;2.83;2.00;;;4.30;99.90;;;;;;5176327;27;20417;-76
2024/02/25 02:46:15;;;;;;;2.70;2.17;;;4.30;99.90;;;;;;5157885;27;20439;-76
2024/02/25 02:48:44;;;;;;;3.40;2.07;;;4.30;99.90;;;;;;5176830;27;20501;-76
2024/02/25 02:51:13;;;;;;;2.60;1.80;;;4.30;99.90;;;;;;5176357;27;20428;-76
2024/02/25 02:53:41;;;;;;;3.33;2.20;;;4.30;99.90;;;;;;5176345;27;20433;-76
2024/02/25 02:56:11;;;;;;;2.70;2.20;;;4.30;99.90;;;;;;5176140;27;20528;-76
2024/02/25 02:58:39;;;;;;;3.73;2.50;;;4.30;99.90;;;;;;5157569;27;20489;-76
2024/02/25 03:01:08;;;;;;;4.80;2.67;;;4.30;99.90;;;;;;5157440;27;20433;-76
2024/02/25 03:03:36;;;;;;;3.73;2.40;;;4.40;99.90;;;;;;5176079;27;20952;-76
2024/02/25 03:06:05;;;;;;;4.30;2.50;;;4.30;99.90;;;;;;5175826;27;20561;-76
2024/02/25 03:08:34;;;;;;;4.63;1.93;;;4.30;99.90;;;;;;5157363;27;20437;-76
2024/02/25 03:11:02;;;;;;;4.33;2.63;;;4.40;99.90;;;;;;5176038;27;20436;-76
2024/02/25 03:13:31;;;;;;;2.67;2.20;;;4.30;99.90;;;;;;5157498;27;20791;-76
2024/02/25 03:16:01;;;;;;;4.50;2.20;;;4.40;99.90;;;;;;5157233;27;20437;-76
2024/02/25 03:18:29;;;;;;;3.50;2.00;;;4.30;99.90;;;;;;5175950;27;20482;-76
2024/02/25 03:20:58;;;;;;;3.23;2.40;;;4.30;99.90;;;;;;5157252;27;20441;-76
2024/02/25 03:23:26;;;;;;;2.67;2.20;;;4.30;99.90;;;;;;5175790;27;20516;-76
2024/02/25 03:25:55;;;;;;;3.60;2.03;;;4.40;99.90;;;;;;5157055;27;20496;-76
2024/02/25 03:28:24;;;;;;;1.90;1.60;;;4.30;99.90;;;;;;5157019;27;20457;-76
2024/02/25 03:30:54;;;;;;;3.90;2.17;;;4.40;99.90;;;;;;5157245;27;20464;-76
2024/02/25 03:33:22;;;;;;;1.83;1.47;;;4.40;99.90;;;;;;5157252;27;20851;-76
2024/02/25 03:35:51;;;;;;;3.17;2.20;;;4.30;99.90;;;;;;5157358;27;20934;-76
2024/02/25 03:38:19;;;;;;;2.43;1.60;;;4.30;99.90;;;;;;5157277;27;21074;-76
2024/02/25 03:40:48;;;;;;;2.40;1.63;;;4.30;99.90;;;;;;5157383;27;20502;-76
2024/02/25 03:43:17;;;;;;;2.47;1.67;;;4.30;99.90;;;;;;5179143;27;20467;-76
2024/02/25 03:45:45;;;;;;;2.70;1.80;;;4.30;99.90;;;;;;5180284;27;20528;-76
2024/02/25 03:48:15;;;;;;;2.50;1.70;;;4.30;99.90;;;;;;5161387;27;20492;-76
2024/02/25 03:50:44;;;;;;;1.70;1.50;;;4.30;99.90;;;;;;5161412;27;20433;-76
2024/02/25 03:53:12;;;;;;;4.10;1.90;;;4.30;99.90;;;;;;5182075;27;20453;-76
2024/02/25 03:55:40;;;;;;;3.63;1.80;;;4.30;99.90;;;;;;5166634;27;20453;-77
2024/02/25 03:58:08;;;;;;;2.17;1.60;;;4.30;99.90;;;;;;5185358;27;20472;-76
2024/02/25 04:00:37;;;;;;;2.80;1.83;;;4.20;99.90;;;;;;5171504;27;20452;-76
2024/02/25 04:03:06;;;;;;;1.80;1.20;;;4.20;99.90;;;;;;5170951;27;20439;-76
2024/02/25 04:05:35;;;;;;;3.17;1.77;;;4.20;99.90;;;;;;5183325;27;20459;-76
2024/02/25 04:08:04;;;;;;;1.60;1.27;;;4.20;99.90;;;;;;5164399;27;21040;-76
2024/02/25 04:10:32;;;;;;;2.30;1.30;;;4.20;99.90;;;;;;5185268;27;20433;-77
2024/02/25 04:13:01;;;;;;;3.03;1.93;;;4.20;99.90;;;;;;5165882;27;20476;-76
2024/02/25 04:15:29;;;;;;;2.37;1.83;;;4.20;99.90;;;;;;5180785;27;20517;-76
2024/02/25 04:17:57;;;;;;;3.63;1.50;;;4.20;99.90;;;;;;5161743;27;20456;-77
2024/02/25 04:20:26;;;;;;;2.63;1.77;;;4.30;99.90;;;;;;5161825;27;20874;-77
2024/02/25 04:22:56;;;;;;;2.30;1.80;;;4.20;99.90;;;;;;5180793;27;20420;-76
2024/02/25 04:25:24;;;;;;;2.70;1.67;;;4.20;99.90;;;;;;5162713;27;20461;-76
2024/02/25 04:27:53;;;;;;;3.90;1.40;;;4.20;99.90;;;;;;5183500;27;20559;-76
2024/02/25 04:30:21;;;;;;;5.40;1.80;;;4.20;99.90;;;;;;5186876;27;20536;-76
2024/02/25 04:32:50;;;;;;;7.93;2.30;;;4.30;99.90;;;;;;5186665;27;20428;-76
2024/02/25 04:35:19;;;;;;;4.00;1.53;;;4.30;99.90;;;;;;5184642;27;20429;-76
2024/02/25 04:37:47;;;;;;;4.63;1.83;;;4.30;99.90;;;;;;5184527;27;20448;-76
2024/02/25 04:40:17;;;;;;;3.30;1.37;;;4.30;99.90;;;;;;5166416;27;20950;-76
2024/02/25 04:42:46;;;;;;;3.03;1.60;;;4.30;99.90;;;;;;5166702;27;20432;-76
2024/02/25 04:45:14;;;;;;;2.40;1.70;;;4.30;99.90;;;;;;5166935;27;20503;-76
2024/02/25 04:47:42;;;;;;;3.53;1.77;;;4.30;99.90;;;;;;5167249;27;20460;-76
2024/02/25 04:50:11;;;;;;;2.73;1.80;;;4.30;99.90;;;;;;5181758;27;20485;-77
2024/02/25 04:52:39;;;;;;;4.17;1.70;;;4.30;99.90;;;;;;5161793;27;20480;-77
2024/02/25 04:55:09;;;;;;;3.53;1.80;;;4.30;99.90;;;;;;5179863;27;20485;-76
2024/02/25 04:57:39;;;;;;;2.27;1.70;;;4.30;99.90;;;;;;5180531;27;20452;-77
2024/02/25 05:00:09;;;;;;;2.80;1.90;;;4.30;99.90;;;;;;5179738;27;20440;-76
2024/02/25 05:02:37;;;;;;;2.83;1.53;;;4.30;99.90;;;;;;5161261;27;20475;-76
2024/02/25 05:05:06;;;;;;;2.80;1.73;;;4.30;99.90;;;;;;5161164;27;20468;-77
2024/02/25 05:07:34;;;;;;;2.03;1.40;;;4.40;99.90;;;;;;5161367;27;20456;-76
2024/02/25 05:10:02;;;;;;;2.10;1.60;;;4.40;99.90;;;;;;5180399;27;20441;-76
2024/02/25 05:12:30;;;;;;;2.97;1.90;;;4.40;99.90;;;;;;5185001;27;20436;-76
2024/02/25 05:15:00;;;;;;;2.70;1.70;;;4.40;99.90;;;;;;5166417;27;20493;-76
2024/02/25 05:17:28;;;;;;;2.90;1.90;;;4.40;99.90;;;;;;5160233;27;20482;-76
2024/02/25 05:19:56;;;;;;;4.00;2.07;;;4.40;99.90;;;;;;5160025;27;20445;-76
2024/02/25 05:22:25;;;;;;;2.87;2.00;;;4.40;99.90;;;;;;5159658;27;20436;-76
2024/02/25 05:24:53;;;;;;;4.00;2.87;;;4.40;99.90;;;;;;5159374;27;20444;-76
2024/02/25 05:27:28;;;;;;;2.80;2.30;;;4.50;99.90;;;;;;5159031;27;20481;-76
2024/02/25 05:29:56;;;;;;;2.90;2.20;;;4.50;99.90;;;;;;5159315;27;20444;-76
2024/02/25 05:32:26;;;;;;;6.80;1.97;;;4.40;99.90;;;;;;5178176;27;20432;-76
2024/02/25 05:34:54;;;;;;;2.97;2.00;;;4.50;99.90;;;;;;5159144;27;20441;-76
2024/02/25 05:37:23;;;;;;;2.50;2.00;;;4.50;99.90;;;;;;5158966;27;20548;-76
2024/02/25 05:39:51;;;;;;;2.13;1.90;;;4.50;99.90;;;;;;5178154;27;20454;-76
2024/02/25 05:42:19;;;;;;;3.40;2.33;;;4.50;99.90;;;;;;5177762;27;20439;-76
2024/02/25 05:44:48;;;;;;;3.50;1.97;;;4.50;99.90;;;;;;5177745;27;20881;-76
2024/02/25 05:47:16;;;;;;;2.60;2.13;;;4.50;99.90;;;;;;5177709;27;20549;-76
2024/02/25 05:49:46;;;;;;;6.00;2.70;;;4.50;99.90;;;;;;5158956;27;20525;-76
2024/02/25 05:52:15;;;;;;;4.93;2.80;;;4.50;99.90;;;;;;5158915;27;20532;-76
2024/02/25 05:54:43;;;;;;;3.10;2.27;;;4.50;99.90;;;;;;5177569;27;20499;-76
2024/02/25 05:57:11;;;;;;;2.30;2.10;;;4.60;99.90;;;;;;5177345;27;20458;-76
2024/02/25 05:59:39;;;;;;;3.30;2.20;;;4.60;99.90;;;;;;5158781;27;20436;-76
2024/02/25 06:02:08;;;;;;;4.10;2.87;;;4.60;99.90;;;;;;5158673;27;21000;-76
2024/02/25 06:04:37;;;;;;;3.70;3.07;;;4.60;99.90;;;;;;5158525;27;20965;-76
2024/02/25 06:07:07;;;;;;;4.80;2.47;;;4.60;99.90;;;;;;5157625;27;20875;-76
2024/02/25 06:09:36;;;;;;;3.40;2.90;;;4.70;99.90;;;;;;5158453;27;20443;-76
2024/02/25 06:12:04;;;;;;;3.07;2.57;;;4.70;99.90;;;;;;5158384;27;20543;-76
2024/02/25 06:14:33;;;;;;;3.77;3.00;;;4.70;99.90;;;;;;5158294;27;20441;-76
2024/02/25 06:17:01;;;;;;;3.27;2.93;;;4.70;99.90;;;;;;5176977;27;20455;-76
2024/02/25 06:19:29;;;;;;;3.23;2.93;;;4.80;99.90;;;;;;5177145;27;20464;-76
2024/02/25 06:21:57;;;;;;;3.20;2.50;;;4.80;99.90;;;;;;5177217;27;20439;-76
2024/02/25 06:24:27;;;;;;;4.23;2.27;;;4.80;99.90;;;;;;5158294;27;20850;-76
2024/02/25 06:26:55;;;;;;;3.00;2.50;;;4.80;99.90;;;;;;5157858;27;20515;-76
2024/02/25 06:29:24;;;;;;;3.60;2.47;;;4.80;99.90;;;;;;5158232;27;20440;-76
2024/02/25 06:31:53;;;;;;;3.27;2.77;;;4.80;99.90;;;;;;5177058;27;21027;-76
2024/02/25 06:34:21;;;;;;;5.60;3.03;;;4.80;99.90;;;;;;5177380;27;20425;-76
2024/02/25 06:36:50;;;;;;;3.83;3.10;;;4.90;99.90;;;;;;5176711;27;20449;-76
2024/02/25 06:39:19;;;;;;;3.13;2.70;;;4.90;99.90;;;;;;5158778;27;20437;-76
2024/02/25 06:41:48;;;;;;;4.57;2.70;;;4.90;99.90;;;;;;5158125;27;20472;-76
2024/02/25 06:44:16;;;;;;;4.13;3.37;;;4.90;99.90;;;;;;5158097;27;20444;-75
2024/02/25 06:46:45;;;;;;;3.20;2.53;;;4.90;99.90;;;;;;5157759;27;20832;-76
2024/02/25 06:49:13;;;;;;;3.23;2.63;;;4.90;99.90;;;;;;5157771;27;20517;-76
2024/02/25 06:51:41;;;;;;;3.23;2.93;;;4.90;99.90;;;;;;5176472;27;20440;-76
2024/02/25 06:54:10;;;;;;;4.10;2.77;;;5.00;99.90;;;;;;5157665;27;20440;-76
2024/02/25 06:56:38;;;;;;;3.50;2.60;;;5.00;99.90;;;;;;5176233;27;20448;-76
2024/02/25 06:59:08;;;;;;;4.13;2.93;;;5.00;99.90;;;;;;5157555;27;20441;-75
2024/02/25 07:01:36;;;;;;;2.83;2.50;;;5.00;99.90;;;;;;5176500;27;20440;-76
2024/02/25 07:04:04;;;;;;;4.10;2.90;;;5.00;99.90;;;;;;5176157;27;20432;-76
2024/02/25 07:06:32;;;;;;;3.03;2.73;;;5.10;99.90;;;;;;5175981;27;20465;-76
2024/02/25 07:09:01;;;;;;;3.30;2.90;;;5.10;99.90;;;;;;5176297;27;20440;-76
2024/02/25 07:11:31;;;;;;;3.90;2.87;;;5.10;99.90;;;;;;5157327;27;20786;-76
2024/02/25 07:13:59;;;;;;;4.27;3.03;;;5.10;99.90;;;;;;5176011;27;20520;-76
2024/02/25 07:16:29;;;;;;;4.10;3.33;;;5.10;99.90;;;;;;5157000;27;20504;-76
2024/02/25 07:18:57;;;;;;;3.80;3.10;;;5.20;99.90;;;;;;5157168;27;20471;-76
2024/02/25 07:21:26;;;;;;;5.87;3.10;;;5.20;99.90;;;;;;5157166;27;20452;-76
2024/02/25 07:23:54;;;;;;;4.40;4.00;;;5.20;99.90;;;;;;5157187;27;20520;-76
2024/02/25 07:26:23;;;;;;;3.77;3.37;;;5.20;99.90;;;;;;5156950;27;20487;-77
2024/02/25 07:28:51;;;;;;;3.00;2.70;;;5.20;99.90;;;;;;5157079;27;20444;-77
2024/02/25 07:31:20;;;;;;;3.00;2.80;;;5.20;99.90;;;;;;5157330;27;20877;-77
2024/02/25 07:33:51;;;;;;;4.93;3.83;;;5.20;99.90;;;;;;5157248;27;20953;-77
2024/02/25 07:36:19;;;;;;;8.97;6.60;;;5.30;99.90;;;;;;5158289;27;20858;-77
2024/02/25 07:38:48;;;;;;;10.50;8.00;;;5.30;99.90;;;;;;5158206;27;20479;-78
2024/02/25 07:41:16;;;;;;;6.00;3.80;;;5.30;99.90;;;;;;5157880;27;20539;-77
2024/02/25 07:43:45;;;;;;;7.23;6.00;;;5.30;99.90;;;;;;5158017;27;20895;-78
2024/02/25 07:46:14;;;;;;;4.07;3.57;;;5.30;99.90;;;;;;5158994;27;20527;-77
2024/02/25 07:48:45;;;;;;;3.60;2.90;;;5.40;99.90;;;;;;5158817;27;20551;-77
2024/02/25 07:51:15;;;;;;;8.20;5.30;;;5.40;99.90;;;;;;5158007;27;20936;-77
2024/02/25 07:53:45;;;;;;;7.27;5.60;;;5.40;99.90;;;;;;5158861;27;20950;-77
2024/02/25 07:56:19;;;;;;;4.23;3.50;;;5.40;99.90;;;;;;5176499;27;20414;-77
2024/02/25 07:58:48;;;;;;;3.20;2.63;;;5.50;99.90;;;;;;5158978;27;20434;-77
2024/02/25 08:01:16;;;;;;;5.60;3.80;;;5.50;99.90;;;;;;5157123;27;20433;-77
2024/02/25 08:03:45;;;;;;;3.80;3.40;;;5.50;99.90;;;;;;5157272;27;20462;-77
2024/02/25 08:06:14;;;;;;;4.70;4.00;;;5.50;99.90;;;;;;5157446;27;20945;-77
2024/02/25 08:08:43;;;;;;;3.50;3.20;;;5.60;99.90;;;;;;5177054;27;20469;-77
2024/02/25 08:11:11;;;;;;;3.40;3.10;;;5.60;99.90;;;;;;5177791;27;20432;-77
2024/02/25 08:13:39;;;;;;;3.93;3.13;;;5.60;99.90;;;;;;5157049;27;20964;-77
2024/02/25 08:16:07;;;;;;;3.90;3.47;;;5.70;99.90;;;;;;5156833;27;20489;-78
2024/02/25 08:18:36;;;;;;;3.80;3.40;;;5.70;99.90;;;;;;5156916;27;20445;-77
2024/02/25 08:21:05;;;;;;;3.57;3.27;;;5.80;99.90;;;;;;5157047;27;20494;-77
2024/02/25 08:23:34;;;;;;;3.60;3.30;;;5.80;99.90;;;;;;5176286;27;20933;-77
2024/02/25 08:26:03;;;;;;;4.40;3.37;;;5.90;99.90;;;;;;5176169;27;20429;-78
2024/02/25 08:28:32;;;;;;;3.77;3.47;;;5.90;99.90;;;;;;5157357;27;21062;-77
2024/02/25 08:31:00;;;;;;;3.80;3.50;;;5.90;99.90;;;;;;5160531;27;20437;-77
2024/02/25 08:33:28;;;;;;;6.97;4.97;;;6.00;99.90;;;;;;5161110;27;20441;-76
2024/02/25 08:35:57;;;;;;;4.83;3.87;;;6.10;99.90;;;;;;5160538;27;21021;-75
2024/02/25 08:38:26;;;;;;;4.50;2.90;;;6.10;99.90;;;;;;5161077;27;20469;-77
2024/02/25 08:40:56;;;;;;;3.47;3.17;;;6.20;99.90;;;;;;5180932;27;20933;-77
2024/02/25 08:43:25;;;;;;;3.00;2.70;;;6.20;99.90;;;;;;5161543;27;20428;-77
2024/02/25 08:45:53;;;;;;;3.87;3.00;;;6.20;99.90;;;;;;5161265;27;20447;-76
2024/02/25 08:48:21;;;;;;;2.70;2.50;;;6.20;99.90;;;;;;5161405;27;20488;-77
2024/02/25 08:50:49;;;;;;;3.40;3.10;;;6.30;99.90;;;;;;5179294;27;20447;-77
2024/02/25 08:53:19;;;;;;;3.47;2.93;;;6.30;99.90;;;;;;5160975;27;20485;-77
2024/02/25 08:55:47;;;;;;;3.50;3.10;;;6.30;99.90;;;;;;5161807;27;20434;-77
2024/02/25 08:58:17;;;;;;;4.67;3.27;;;6.30;99.90;;;;;;5161315;27;20498;-77
2024/02/25 09:00:45;;;;;;;3.20;2.90;;;6.40;99.90;;;;;;5181166;27;20458;-77
2024/02/25 09:03:14;;;;;;;4.20;3.80;;;6.40;99.90;;;;;;5160714;27;20471;-76
2024/02/25 09:05:43;;;;;;;3.37;3.07;;;6.40;99.90;;;;;;5179526;27;20524;-77
2024/02/25 09:08:11;;;;;;;3.80;2.80;;;6.40;99.90;;;;;;5179608;27;20954;-77
2024/02/25 09:10:39;;;;;;;6.17;5.57;;;6.50;99.90;;;;;;5161187;27;20454;-77
2024/02/25 09:13:08;;;;;;;3.40;3.10;;;6.50;99.90;;;;;;5161461;27;20942;-76
2024/02/25 09:15:37;;;;;;;3.87;3.10;;;6.50;99.90;;;;;;5161526;27;20533;-77
2024/02/25 09:18:06;;;;;;;3.00;2.57;;;6.50;99.90;;;;;;5179520;27;20480;-77
2024/02/25 09:20:35;;;;;;;2.90;2.50;;;6.50;99.90;;;;;;5160411;27;20434;-77
2024/02/25 09:23:04;;;;;;;3.10;2.80;;;6.60;99.90;;;;;;5159601;27;20440;-76
2024/02/25 09:25:35;;;;;;;3.80;2.93;;;6.60;99.90;;;;;;5159586;27;20469;-76
2024/02/25 09:28:04;;;;;;;3.03;2.73;;;6.60;99.90;;;;;;5160259;27;20479;-77
2024/02/25 09:30:33;;;;;;;2.73;2.53;;;6.60;99.90;;;;;;5161054;27;20454;-77
2024/02/25 09:33:03;;;;;;;3.13;2.30;;;6.70;99.90;;;;;;5161111;27;20450;-78
2024/02/25 09:35:32;;;;;;;3.63;3.20;;;6.70;99.90;;;;;;5160656;27;20450;-77
2024/02/25 09:38:00;;;;;;;3.90;3.50;;;6.70;99.90;;;;;;5178249;27;20487;-78
2024/02/25 09:40:29;;;;;;;2.77;2.40;;;6.70;99.90;;;;;;5177873;27;20934;-77
2024/02/25 09:42:58;;;;;;;7.00;5.80;;;6.80;99.90;;;;;;5179461;27;20441;-78
2024/02/25 09:45:31;;;;;;;3.83;2.80;;;6.70;99.90;;;;;;5160151;27;20493;-77
2024/02/25 09:48:01;;;;;;;2.57;2.37;;;6.80;99.90;;;;;;5159234;27;20476;-77
2024/02/25 09:50:33;;;;;;;3.23;2.73;;;6.80;99.90;;;;;;5159254;27;20451;-77
2024/02/25 09:53:02;;;;;;;2.67;2.47;;;6.90;99.90;;;;;;5159134;27;20458;-77
2024/02/25 09:55:31;;;;;;;2.90;2.60;;;7.00;99.90;;;;;;5159023;27;20439;-77
2024/02/25 09:57:59;;;;;;;2.50;2.30;;;7.10;99.90;;;;;;5159021;27;20460;-77
2024/02/25 10:00:27;;;;;;;2.60;2.00;;;7.10;99.90;;;;;;5158951;27;20439;-76
2024/02/25 10:02:56;;;;;;;3.07;2.77;;;7.20;99.90;;;;;;5177597;27;20953;-77
2024/02/25 10:05:24;;;;;;;3.07;2.60;;;7.30;99.90;;;;;;5158783;27;20450;-77
2024/02/25 10:08:06;;;;;;;3.30;2.43;;;7.40;99.90;;;;;;5158837;27;20476;-77
2024/02/25 10:10:35;;;;;;;4.60;3.70;;;7.50;99.90;;;;;;5158771;27;20455;-77
2024/02/25 10:13:04;;;;;;;3.77;2.90;;;7.50;99.90;;;;;;5178584;27;20431;-77
2024/02/25 10:15:33;;;;;;;3.10;2.20;;;7.50;99.90;;;;;;5177550;27;20439;-77
2024/02/25 10:18:01;;;;;;;3.07;2.47;;;7.60;99.90;;;;;;5158742;27;20871;-77
2024/02/25 10:20:30;;;;;;;3.33;2.50;;;7.60;99.90;;;;;;5158595;27;20500;-76
2024/02/25 10:23:10;;;;;;;3.57;2.77;;;7.60;99.90;;;;;;5158951;27;20936;-77
2024/02/25 10:25:40;;;;;;;2.50;2.30;;;7.60;99.90;;;;;;5160132;27;20479;-77
2024/02/25 10:28:13;;;;;;;3.20;2.50;;;7.60;99.90;;;;;;5178045;27;20482;-77
2024/02/25 10:30:58;;;;;;;3.47;3.13;;;7.60;99.90;;;;;;5179405;27;20522;-77
2024/02/25 10:33:27;;;;;;;3.53;2.47;;;7.60;99.90;;;;;;5158668;27;20447;-77
2024/02/25 10:36:04;;;;;;;2.50;2.30;;;7.60;99.90;;;;;;5158442;27;20445;-77
2024/02/25 10:38:36;;;;;;;2.17;1.97;;;7.60;99.90;;;;;;5177514;27;20816;-76
2024/02/25 10:41:06;;;;;;;5.37;4.30;;;7.60;99.90;;;;;;5158345;27;20523;-76
2024/02/25 10:43:35;;;;;;;2.87;2.60;;;7.60;99.90;;;;;;5158146;27;20441;-76
2024/02/25 10:46:10;;;;;;;3.10;2.80;;;7.60;99.90;;;;;;5159156;27;20448;-77
2024/02/25 10:48:40;;;;;;;2.93;2.70;;;7.70;99.90;;;;;;5177275;27;21027;-77
2024/02/25 10:51:11;;;;;;;4.00;2.23;;;7.70;99.90;;;;;;5158149;27;20436;-77
2024/02/25 10:53:41;;;;;;;2.87;2.67;;;7.70;99.90;;;;;;5158070;27;20447;-75
2024/02/25 10:56:15;;;;;;;2.87;2.67;;;7.70;99.90;;;;;;5176767;27;20421;-77
2024/02/25 10:58:45;;;;;;;3.00;2.63;;;7.60;99.90;;;;;;5158121;27;20954;-77
2024/02/25 11:01:14;;;;;;;2.63;2.40;;;7.60;99.90;;;;;;5176937;27;20435;-76
2024/02/25 11:03:44;;;;;;;2.60;2.40;;;7.60;99.90;;;;;;5157796;27;20456;-77
2024/02/25 11:06:30;;;;;;;3.20;2.60;;;7.60;99.90;;;;;;5159583;27;20510;-76
2024/02/25 11:09:09;;;;;;;3.10;2.80;;;7.60;99.90;;;;;;5158578;27;20563;-77
2024/02/25 11:11:38;;;;;;;2.83;2.63;;;7.50;99.90;;;;;;5157727;27;20431;-77
2024/02/25 11:14:07;;;;;;;2.53;2.33;;;7.50;99.90;;;;;;5157791;27;20443;-77
2024/02/25 11:16:43;;;;;;;3.13;2.80;;;7.50;99.90;;;;;;5157516;27;20474;-77
2024/02/25 11:19:15;;;;;;;2.97;2.77;;;7.50;99.90;;;;;;5157688;27;20457;-77
2024/02/25 11:21:44;;;;;;;3.37;3.07;;;7.50;99.90;;;;;;5157997;27;20446;-77
2024/02/25 11:24:45;;;;;;;3.67;3.37;;;7.50;99.90;;;;;;5157614;27;20436;-77
2024/02/25 11:27:14;;;;;;;3.40;3.10;;;7.50;99.90;;;;;;5176391;27;20464;-77
2024/02/25 11:29:43;;;;;;;3.10;2.90;;;7.50;99.90;;;;;;5176484;27;21044;-77
2024/02/25 11:32:12;;;;;;;3.77;3.47;;;7.60;99.90;;;;;;5176451;27;20483;-77
2024/02/25 11:34:40;;;;;;;4.00;3.70;;;7.60;99.90;;;;;;5157428;27;20543;-77
2024/02/25 11:37:09;;;;;;;4.00;3.70;;;7.70;99.90;;;;;;5157410;27;20473;-77
2024/02/25 11:39:39;;;;;;;3.70;3.30;;;7.70;99.90;;;;;;5157742;27;20433;-77
2024/02/25 11:42:07;;;;;;;3.80;3.60;;;7.70;99.90;;;;;;5157465;27;20437;-77
2024/02/25 11:44:36;;;;;;;4.60;4.30;;;7.70;99.90;;;;;;5176022;27;20474;-77
2024/02/25 11:47:07;;;;;;;3.60;3.30;;;7.70;99.90;;;;;;5175878;27;20483;-77
2024/02/25 11:49:37;;;;;;;4.03;3.73;;;7.70;99.90;;;;;;5157235;27;20484;-77
2024/02/25 11:52:06;;;;;;;4.10;3.80;;;7.70;99.90;;;;;;5157265;27;20448;-77
2024/02/25 11:54:36;;;;;;;3.97;3.67;;;7.70;99.90;;;;;;5157309;27;20475;-77
2024/02/25 11:57:06;;;;;;;4.20;3.90;;;7.70;99.90;;;;;;5157053;27;20468;-77
2024/02/25 11:59:36;;;;;;;4.37;4.07;;;7.80;99.90;;;;;;5176154;27;20473;-77
2024/02/25 12:02:04;;;;;;;10.00;9.10;;;7.80;99.90;;;;;;5157275;27;20808;-77
2024/02/25 12:04:33;;;;;;;7.37;6.77;;;7.90;99.90;;;;;;5178014;27;20434;-77
2024/02/25 12:07:04;;;;;;;4.87;4.57;;;7.90;99.90;;;;;;5161280;27;20487;-77
2024/02/25 12:09:33;;;;;;;4.93;4.57;;;7.90;99.90;;;;;;5161306;27;20463;-77
2024/02/25 12:12:01;;;;;;;4.80;4.50;;;8.00;99.90;;;;;;5161281;27;20470;-77
2024/02/25 12:14:32;;;;;;;5.07;4.67;;;8.00;99.90;;;;;;5161278;27;20481;-77
2024/02/25 12:17:01;;;;;;;4.57;4.27;;;8.00;99.90;;;;;;5161053;27;20469;-77
2024/02/25 12:19:29;;;;;;;5.30;4.90;;;8.10;99.90;;;;;;5179823;27;20432;-77
2024/02/25 12:21:59;;;;;;;5.73;5.33;;;8.10;99.90;;;;;;5161288;27;20777;-77
2024/02/25 12:24:28;;;;;;;5.10;4.80;;;8.10;99.90;;;;;;5161020;27;20992;-77
2024/02/25 12:26:58;;;;;;;6.57;5.97;;;8.10;99.90;;;;;;5160840;27;20500;-77
2024/02/25 12:29:28;;;;;;;6.33;5.93;;;8.20;99.90;;;;;;5160923;27;20577;-77
2024/02/25 12:31:58;;;;;;;5.77;5.27;;;8.20;99.90;;;;;;5160999;27;20846;-77
2024/02/25 12:34:27;;;;;;;5.63;5.13;;;8.20;99.90;;;;;;5160866;27;20474;-77
2024/02/25 12:36:57;;;;;;;5.83;5.23;;;8.20;99.90;;;;;;5160729;27;20469;-77
2024/02/25 12:39:27;;;;;;;7.03;6.53;;;8.20;99.90;;;;;;5160893;27;20551;-77
2024/02/25 12:41:56;;;;;;;5.60;5.20;;;8.20;99.90;;;;;;5179412;27;20535;-77
2024/02/25 12:44:25;;;;;;;6.27;5.77;;;8.30;99.90;;;;;;5179394;27;20447;-77
2024/02/25 12:46:54;;;;;;;6.90;6.17;;;8.30;99.90;;;;;;5161316;27;20853;-77
2024/02/25 12:49:23;;;;;;;7.43;6.83;;;8.30;99.90;;;;;;5179378;27;20467;-76
2024/02/25 12:51:53;;;;;;;8.60;7.70;;;8.40;99.90;;;;;;5160215;27;20527;-77
2024/02/25 12:54:22;;;;;;;8.57;7.80;;;8.40;99.90;;;;;;5178998;27;20440;-77
2024/02/25 12:56:50;;;;;;;7.53;6.93;;;8.40;99.90;;;;;;5160238;27;20471;-77
2024/02/25 12:59:21;;;;;;;5.73;5.33;;;8.40;99.90;;;;;;5178993;27;20471;-77
2024/02/25 13:01:49;;;;;;;5.87;5.47;;;8.40;99.90;;;;;;5160178;27;20447;-77
2024/02/25 13:04:19;;;;;;;5.70;5.30;;;8.50;99.90;;;;;;5160370;27;20444;-77
2024/02/25 13:06:49;;;;;;;6.50;6.00;;;8.60;99.90;;;;;;5159966;27;20492;-77
2024/02/25 13:09:21;;;;;;;6.00;5.60;;;8.70;99.90;;;;;;5160083;27;20437;-77